Time;durP1;ratioP1;P1;durP2;ratioP2;P2;SDS_P1;SDS_P2;PMS_P1;PMS_P2;Temp;Humidity;BMP_temperature;BMP_pressure;BME280_temperature;BME280_humidity;BME280_pressure;Samples;Min_cycle;Max_cycle;Signal;HPM_P1;HPM_P2
2021/05/04 00:00:08;;;;;;;4.72;4.18;;;;;;;-0.11;93.72;92798.63;2089798;28;20256;-84
2021/05/04 00:01:09;;;;;;;4.40;4.00;;;;;;;-0.11;93.57;92805.75;2100847;28;20035;-80
2021/05/04 00:02:09;;;;;;;5.20;4.03;;;;;;;-0.05;93.39;92802.44;2089689;28;20017;-80
2021/05/04 00:03:10;;;;;;;5.80;4.28;;;;;;;-0.08;93.25;92799.81;2089701;28;20029;-89
2021/05/04 00:04:11;;;;;;;5.22;4.40;;;;;;;-0.11;93.17;92798.63;2106187;28;20024;-81
2021/05/04 00:05:11;;;;;;;5.57;3.88;;;;;;;-0.11;92.93;92796.00;2097784;28;20524;-81
2021/05/04 00:06:12;;;;;;;5.55;4.22;;;;;;;-0.17;93.17;92796.69;2097689;28;20035;-84
2021/05/04 00:07:13;;;;;;;4.80;4.15;;;;;;;-0.16;93.81;92795.56;2097776;28;20101;-82
2021/05/04 00:08:14;;;;;;;4.45;4.05;;;;;;;-0.22;93.03;92796.97;2097681;28;20020;-83
2021/05/04 00:09:14;;;;;;;9.05;4.95;;;;;;;-0.29;94.02;92795.03;2087698;28;20017;-83
2021/05/04 00:10:15;;;;;;;6.68;5.32;;;;;;;-0.24;94.70;92781.56;2106461;28;20489;-81
2021/05/04 00:11:16;;;;;;;4.93;4.47;;;;;;;-0.17;95.06;92779.06;2114697;28;20023;-88
2021/05/04 00:12:16;;;;;;;7.22;4.88;;;;;;;-0.14;93.97;92788.06;2106356;28;20028;-82
2021/05/04 00:13:17;;;;;;;5.07;4.55;;;;;;;-0.10;93.74;92779.13;2114728;28;20080;-82
2021/05/04 00:14:18;;;;;;;6.35;4.63;;;;;;;-0.16;93.86;92779.81;2118760;27;20634;-80
2021/05/04 00:15:19;;;;;;;4.90;4.38;;;;;;;-0.12;94.20;92780.63;2114712;28;20030;-82
2021/05/04 00:16:19;;;;;;;4.85;4.13;;;;;;;-0.09;94.89;92785.13;2097543;28;20024;-85
2021/05/04 00:17:20;;;;;;;7.53;4.40;;;;;;;-0.16;93.33;92774.56;2101723;28;20027;-83
2021/05/04 00:18:20;;;;;;;7.50;4.05;;;;;;;-0.13;93.59;92776.44;2106024;28;20055;-83
2021/05/04 00:19:21;;;;;;;7.75;4.55;;;;;;;-0.14;92.57;92780.19;2106063;28;20028;-83
2021/05/04 00:20:22;;;;;;;5.85;4.72;;;;;;;-0.15;93.12;92768.94;2106012;28;20032;-83
2021/05/04 00:21:23;;;;;;;6.13;4.60;;;;;;;-0.21;92.49;92778.25;2097854;28;20511;-82
2021/05/04 00:22:23;;;;;;;5.95;4.93;;;;;;;-0.11;92.70;92774.25;2080871;28;20048;-81
2021/05/04 00:23:24;;;;;;;5.60;4.40;;;;;;;-0.16;92.41;92785.06;2089173;28;20021;-82
2021/05/04 00:24:25;;;;;;;5.03;4.53;;;;;;;-0.18;93.07;92779.38;2089840;28;20127;-84
2021/05/04 00:25:26;;;;;;;5.80;4.45;;;;;;;-0.25;93.15;92777.44;2090233;28;20021;-79
2021/05/04 00:26:27;;;;;;;5.18;4.53;;;;;;;-0.22;92.92;92775.97;2098015;28;20115;-85
2021/05/04 00:27:27;;;;;;;4.90;4.40;;;;;;;-0.29;93.37;92766.88;2106458;28;20043;-83
2021/05/04 00:28:28;;;;;;;4.95;4.45;;;;;;;-0.30;93.46;92770.63;2097947;28;20028;-83
2021/05/04 00:29:29;;;;;;;6.38;4.68;;;;;;;-0.19;93.55;92773.38;2105416;28;20046;-84
2021/05/04 00:30:30;;;;;;;5.35;4.40;;;;;;;-0.30;93.04;92764.63;2097832;28;20020;-85
2021/05/04 00:31:31;;;;;;;5.50;4.93;;;;;;;-0.25;93.39;92766.94;2089788;28;20025;-88
2021/05/04 00:32:31;;;;;;;6.20;4.35;;;;;;;-0.26;91.99;92768.06;2091854;28;20031;-85
2021/05/04 00:33:32;;;;;;;5.00;4.50;;;;;;;-0.30;91.91;92765.38;2114808;28;20025;-84
2021/05/04 00:34:32;;;;;;;4.50;4.10;;;;;;;-0.26;93.26;92760.94;2123061;27;20510;-82
2021/05/04 00:35:33;;;;;;;5.47;4.97;;;;;;;-0.34;93.35;92758.56;2114996;28;20152;-84
2021/05/04 00:36:34;;;;;;;5.15;4.47;;;;;;;-0.37;92.02;92767.16;2098012;28;20075;-81
2021/05/04 00:37:34;;;;;;;5.00;4.32;;;;;;;-0.39;91.94;92758.88;2104915;28;20089;-85
2021/05/04 00:38:35;;;;;;;4.97;4.38;;;;;;;-0.33;92.19;92749.56;2114924;28;20029;-84
2021/05/04 00:39:37;;;;;;;6.20;4.70;;;;;;;-0.38;92.10;92758.53;2109822;28;20065;-82
2021/05/04 00:40:38;;;;;;;5.57;4.38;;;;;;;-0.48;92.35;92753.91;2114860;28;20023;-84
2021/05/04 00:41:38;;;;;;;5.97;4.88;;;;;;;-0.45;93.15;92742.66;2114617;28;20050;-85
2021/05/04 00:42:39;;;;;;;6.22;4.40;;;;;;;-0.34;92.71;92756.69;2106094;28;20632;-84
2021/05/04 00:43:40;;;;;;;6.53;4.38;;;;;;;-0.39;93.52;92753.63;2114628;28;20093;-82
2021/05/04 00:44:41;;;;;;;5.50;4.70;;;;;;;-0.34;93.89;92748.81;2105462;28;20024;-81
2021/05/04 00:45:41;;;;;;;7.57;4.90;;;;;;;-0.41;94.59;92759.22;2097780;28;20093;-87
2021/05/04 00:46:42;;;;;;;5.22;4.72;;;;;;;-0.52;94.29;92750.47;2097824;28;20043;-82
2021/05/04 00:47:43;;;;;;;5.70;4.88;;;;;;;-0.48;94.52;92747.84;2106295;28;20036;-86
2021/05/04 00:48:44;;;;;;;7.28;4.13;;;;;;;-0.41;95.43;92755.84;2099262;28;20477;-83
2021/05/04 00:49:44;;;;;;;5.30;4.22;;;;;;;-0.40;94.80;92752.09;2097846;28;20127;-82
2021/05/04 00:50:45;;;;;;;6.03;4.72;;;;;;;-0.43;93.42;92753.56;2097857;28;20028;-83
2021/05/04 00:51:47;;;;;;;5.90;5.07;;;;;;;-0.46;93.57;92753.53;2089418;28;20091;-83
2021/05/04 00:52:48;;;;;;;5.18;4.68;;;;;;;-0.52;93.92;92751.22;2109846;27;20035;-84
2021/05/04 00:53:49;;;;;;;6.78;4.63;;;;;;;-0.61;94.45;92748.09;2107929;28;20028;-81
2021/05/04 00:54:52;;;;;;;4.82;4.32;;;;;;;-0.57;94.06;92742.88;2089425;28;20111;-82
2021/05/04 00:55:52;;;;;;;5.78;4.72;;;;;;;-0.65;94.22;92754.41;2098372;28;20036;-84
2021/05/04 00:56:56;;;;;;;5.70;4.55;;;;;;;-0.61;93.69;92745.47;2097935;28;20025;-86
2021/05/04 00:57:57;;;;;;;6.32;4.55;;;;;;;-0.62;93.30;92741.31;2098128;28;20037;-85
2021/05/04 00:58:59;;;;;;;4.70;4.30;;;;;;;-0.54;93.68;92735.03;2097688;28;20806;-82
2021/05/04 01:00:05;;;;;;;5.07;4.57;;;;;;;-0.53;93.55;92735.78;2106287;28;20024;-82
2021/05/04 01:01:05;;;;;;;5.20;4.57;;;;;;;-0.55;93.50;92736.16;2097674;28;20020;-85
2021/05/04 01:02:06;;;;;;;6.30;4.95;;;;;;;-0.57;93.62;92735.00;2089694;28;20479;-80
2021/05/04 01:03:09;;;;;;;5.43;4.28;;;;;;;-0.69;93.69;92735.22;2097793;28;20050;-84
2021/05/04 01:04:10;;;;;;;5.95;4.60;;;;;;;-0.59;93.21;92737.97;2103892;28;20023;-81
2021/05/04 01:05:11;;;;;;;6.47;4.43;;;;;;;-0.57;93.31;92729.75;2097619;28;20489;-83
2021/05/04 01:06:12;;;;;;;5.53;4.38;;;;;;;-0.63;93.11;92737.16;2106059;28;20143;-81
2021/05/04 01:07:13;;;;;;;7.55;5.05;;;;;;;-0.59;93.97;92726.72;2106228;28;20023;-85
2021/05/04 01:08:13;;;;;;;4.85;4.38;;;;;;;-0.60;92.89;92733.09;2114652;28;20035;-85
2021/05/04 01:09:15;;;;;;;5.32;4.53;;;;;;;-0.64;93.32;92725.16;2106172;28;20052;-82
2021/05/04 01:10:16;;;;;;;6.78;5.35;;;;;;;-0.63;93.91;92726.69;2097813;28;20040;-81
2021/05/04 01:11:17;;;;;;;8.02;4.50;;;;;;;-0.72;92.69;92728.06;2106112;28;20046;-84
2021/05/04 01:12:17;;;;;;;5.28;4.78;;;;;;;-0.65;94.47;92723.66;2090673;28;20033;-81
2021/05/04 01:13:18;;;;;;;5.78;5.00;;;;;;;-0.52;94.18;92724.22;2097885;28;20437;-83
2021/05/04 01:14:19;;;;;;;5.53;4.70;;;;;;;-0.54;94.01;92724.53;2097817;28;20032;-83
2021/05/04 01:15:20;;;;;;;6.47;4.68;;;;;;;-0.51;94.57;92712.59;2103673;28;20027;-82
2021/05/04 01:16:21;;;;;;;7.22;4.72;;;;;;;-0.49;94.58;92718.22;2114617;28;20488;-87
2021/05/04 01:17:21;;;;;;;4.88;4.22;;;;;;;-0.58;94.25;92713.25;2106861;28;20039;-86
2021/05/04 01:18:22;;;;;;;5.97;4.30;;;;;;;-0.47;93.38;92717.91;2097386;28;20020;-82
2021/05/04 01:19:23;;;;;;;4.78;4.20;;;;;;;-0.55;93.02;92717.78;2097640;28;20433;-82
2021/05/04 01:20:24;;;;;;;7.00;4.88;;;;;;;-0.54;93.59;92711.41;2089784;28;20032;-84
2021/05/04 01:21:25;;;;;;;5.43;4.70;;;;;;;-0.47;94.23;92717.91;2105199;28;20547;-82
2021/05/04 01:22:26;;;;;;;5.88;4.50;;;;;;;-0.54;93.99;92716.66;2106122;28;20418;-82
2021/05/04 01:23:26;;;;;;;4.70;4.22;;;;;;;-0.55;93.89;92714.41;2102882;28;20039;-82
2021/05/04 01:24:27;;;;;;;8.35;5.10;;;;;;;-0.62;94.14;92714.31;2097748;28;20496;-82
2021/05/04 01:25:28;;;;;;;6.75;4.22;;;;;;;-0.68;93.54;92715.75;2097544;28;20028;-82
2021/05/04 01:26:29;;;;;;;5.80;4.60;;;;;;;-0.74;94.04;92717.91;2097536;28;20111;-84
2021/05/04 01:27:29;;;;;;;6.10;4.55;;;;;;;-0.71;94.59;92709.31;2097548;28;20074;-83
2021/05/04 01:28:31;;;;;;;6.82;4.93;;;;;;;-0.64;94.43;92708.66;2089313;28;20021;-81
2021/05/04 01:29:31;;;;;;;4.90;4.50;;;;;;;-0.65;94.94;92712.41;2082012;28;20032;-83
2021/05/04 01:30:32;;;;;;;5.70;4.55;;;;;;;-0.64;95.04;92706.78;2114236;28;20039;-85
2021/05/04 01:31:33;;;;;;;5.05;4.55;;;;;;;-0.50;94.89;92711.47;2114595;28;20523;-80
2021/05/04 01:32:33;;;;;;;5.22;4.15;;;;;;;-0.61;93.84;92708.72;2106124;28;20434;-84
2021/05/04 01:33:34;;;;;;;4.72;4.05;;;;;;;-0.56;94.62;92705.03;2106085;28;20024;-82
2021/05/04 01:34:35;;;;;;;5.25;4.22;;;;;;;-0.60;95.14;92698.97;2097576;28;20086;-84
2021/05/04 01:35:36;;;;;;;4.53;4.05;;;;;;;-0.60;94.56;92697.09;2097743;28;20020;-86
2021/05/04 01:36:36;;;;;;;5.22;4.72;;;;;;;-0.58;94.67;92692.25;2100782;28;20484;-84
2021/05/04 01:37:38;;;;;;;4.63;4.13;;;;;;;-0.57;94.33;92698.25;2097558;28;20072;-81
2021/05/04 01:38:38;;;;;;;6.32;4.72;;;;;;;-0.54;95.58;92687.03;2098733;28;20016;-84
2021/05/04 01:39:39;;;;;;;8.07;4.50;;;;;;;-0.54;94.71;92684.41;2114246;28;20050;-84
2021/05/04 01:40:40;;;;;;;5.38;4.70;;;;;;;-0.47;95.11;92686.41;2105967;28;20030;-85
2021/05/04 01:41:40;;;;;;;4.70;4.20;;;;;;;-0.48;95.40;92683.00;2104469;28;20027;-84
2021/05/04 01:42:45;;;;;;;5.57;5.03;;;;;;;-0.42;95.53;92681.56;2088625;28;20587;-83
2021/05/04 01:43:46;;;;;;;4.90;4.40;;;;;;;-0.43;94.53;92679.31;2082013;28;20103;-84
2021/05/04 01:44:46;;;;;;;5.95;4.55;;;;;;;-0.49;94.56;92672.84;2089315;28;20021;-82
2021/05/04 01:45:47;;;;;;;5.78;4.07;;;;;;;-0.40;93.89;92678.59;2089297;28;20029;-87
2021/05/04 01:46:48;;;;;;;5.82;4.45;;;;;;;-0.37;94.25;92675.25;2085498;28;20021;-85
2021/05/04 01:47:48;;;;;;;6.72;4.75;;;;;;;-0.34;94.38;92671.91;2097640;28;20025;-81
2021/05/04 01:48:49;;;;;;;5.13;4.50;;;;;;;-0.33;93.71;92668.19;2106033;28;20027;-83
2021/05/04 01:49:50;;;;;;;6.70;4.45;;;;;;;-0.27;93.60;92664.88;2097635;28;20024;-80
2021/05/04 01:50:50;;;;;;;5.38;4.60;;;;;;;-0.30;93.57;92673.47;2097193;28;20016;-81
2021/05/04 01:51:55;;;;;;;5.28;4.57;;;;;;;-0.22;93.68;92661.19;2097438;28;20056;-82
2021/05/04 01:52:55;;;;;;;5.38;4.78;;;;;;;-0.14;92.85;92662.00;2106388;28;20112;-83
2021/05/04 01:53:57;;;;;;;5.63;5.07;;;;;;;-0.15;92.44;92666.50;2097304;28;20028;-82
2021/05/04 01:54:59;;;;;;;5.30;4.80;;;;;;;-0.15;93.56;92665.75;2100139;28;20027;-83
2021/05/04 01:56:00;;;;;;;5.40;4.57;;;;;;;-0.15;93.23;92671.00;2104508;28;20178;-80
2021/05/04 01:57:00;;;;;;;6.38;4.65;;;;;;;-0.11;93.37;92656.78;2104609;28;20035;-80
2021/05/04 01:58:01;;;;;;;4.97;4.30;;;;;;;0.21;91.94;92661.59;2113021;28;20047;-81
2021/05/04 01:59:04;;;;;;;6.57;4.75;;;;;;;0.26;91.89;92658.66;2091817;28;20394;-84
2021/05/04 02:00:06;;;;;;;4.72;4.25;;;;;;;0.46;90.87;92665.22;2088958;28;20021;-86
2021/05/04 02:01:07;;;;;;;5.00;4.05;;;;;;;0.66;89.86;92652.63;2096258;28;20024;-80
2021/05/04 02:02:08;;;;;;;5.68;4.70;;;;;;;0.78;88.71;92654.19;2089041;28;20048;-85
2021/05/04 02:04:58;;;;;;;9.50;3.70;;;;;;;0.95;86.86;92655.44;2148132;27;20557;-87
2021/05/04 02:05:58;;;;;;;5.18;4.68;;;;;;;1.02;86.29;92649.47;2121810;28;20024;-85
2021/05/04 02:07:02;;;;;;;4.70;4.22;;;;;;;1.14;86.33;92644.69;2112658;28;20027;-83
2021/05/04 02:08:03;;;;;;;5.55;4.43;;;;;;;1.30;84.42;92648.88;2113398;28;20024;-87
2021/05/04 02:09:09;;;;;;;5.05;4.18;;;;;;;1.40;83.64;92637.66;2121505;27;20019;-85
2021/05/04 02:10:11;;;;;;;4.43;3.83;;;;;;;1.40;83.99;92642.91;2113642;28;20034;-85
2021/05/04 02:11:12;;;;;;;5.22;4.38;;;;;;;1.39;83.97;92641.41;2121604;28;20019;-86
2021/05/04 02:12:13;;;;;;;4.85;3.97;;;;;;;1.41;82.97;92636.53;2104611;28;20119;-87
2021/05/04 02:13:14;;;;;;;4.30;3.88;;;;;;;1.44;83.01;92630.50;2121797;28;20084;-84
2021/05/04 02:14:14;;;;;;;4.60;4.20;;;;;;;1.66;82.24;92634.75;2112858;28;20023;-87
2021/05/04 02:15:16;;;;;;;6.07;4.03;;;;;;;1.62;82.08;92631.34;2104755;28;20024;-84
2021/05/04 02:16:17;;;;;;;6.22;4.72;;;;;;;1.73;80.85;92628.75;2113189;27;20031;-85
2021/05/04 02:17:18;;;;;;;5.55;3.90;;;;;;;1.73;81.71;92626.13;2121598;28;20102;-86
2021/05/04 02:18:19;;;;;;;4.30;3.90;;;;;;;1.65;82.03;92627.97;2111345;28;20031;-84
2021/05/04 02:19:20;;;;;;;4.00;3.60;;;;;;;1.92;80.29;92630.31;2112724;28;20492;-87
2021/05/04 02:20:21;;;;;;;5.38;3.80;;;;;;;1.86;80.72;92626.53;2112961;28;20062;-87
2021/05/04 02:21:22;;;;;;;4.90;4.00;;;;;;;1.75;81.29;92627.25;2104589;28;20020;-85
2021/05/04 02:22:22;;;;;;;5.05;3.83;;;;;;;1.69;81.56;92620.84;2096305;28;20021;-82
2021/05/04 02:23:23;;;;;;;5.05;4.20;;;;;;;1.62;81.54;92617.41;2107320;28;20369;-86
2021/05/04 02:24:23;;;;;;;4.40;4.00;;;;;;;1.56;81.56;92603.09;2113183;28;20422;-83
2021/05/04 02:25:24;;;;;;;4.10;3.70;;;;;;;1.67;81.76;92609.94;2113163;28;20023;-83
2021/05/04 02:26:25;;;;;;;4.50;4.10;;;;;;;1.65;81.79;92620.06;2113011;28;20147;-86
2021/05/04 02:27:26;;;;;;;5.78;3.92;;;;;;;1.62;81.49;92612.16;2121498;27;20062;-84
2021/05/04 02:28:27;;;;;;;4.68;3.90;;;;;;;1.63;81.72;92611.03;2119404;28;20549;-83
2021/05/04 02:29:28;;;;;;;6.75;4.22;;;;;;;1.62;81.06;92612.16;2122398;27;20110;-83
2021/05/04 02:30:33;;;;;;;5.97;4.03;;;;;;;1.63;81.55;92608.41;2122734;28;20039;-81
2021/05/04 02:31:34;;;;;;;4.50;4.10;;;;;;;1.58;81.97;92608.75;2106436;28;20024;-81
2021/05/04 02:32:35;;;;;;;4.40;4.00;;;;;;;1.70;81.24;92613.69;2114347;28;20045;-83
2021/05/04 02:33:37;;;;;;;4.22;3.83;;;;;;;1.65;81.46;92609.53;2113661;28;20035;-81
2021/05/04 02:34:38;;;;;;;6.80;4.10;;;;;;;1.66;81.24;92597.13;2115361;28;20024;-83
2021/05/04 02:35:38;;;;;;;4.60;4.20;;;;;;;1.62;81.63;92612.91;2106827;28;20016;-84
2021/05/04 02:36:40;;;;;;;7.18;4.20;;;;;;;1.62;81.40;92606.88;2114947;28;20027;-81
2021/05/04 02:37:40;;;;;;;4.88;4.20;;;;;;;1.66;81.80;92608.41;2122583;28;20030;-84
2021/05/04 02:38:41;;;;;;;4.18;3.83;;;;;;;1.66;82.08;92607.66;2122841;27;20033;-83
2021/05/04 02:39:42;;;;;;;6.07;4.10;;;;;;;1.60;81.48;92596.72;2111214;28;20491;-82
2021/05/04 02:40:42;;;;;;;6.43;4.40;;;;;;;1.61;81.69;92605.38;2121950;28;20027;-82
2021/05/04 02:41:43;;;;;;;6.35;4.18;;;;;;;1.58;81.06;92591.09;2121841;28;20015;-84
2021/05/04 02:42:44;;;;;;;6.97;4.45;;;;;;;1.63;81.22;92605.78;2112724;28;20024;-83
2021/05/04 02:43:44;;;;;;;5.28;4.57;;;;;;;1.63;81.52;92601.25;2112525;28;20077;-83
2021/05/04 02:44:45;;;;;;;4.85;4.18;;;;;;;1.78;80.80;92602.03;2112929;28;20031;-86
2021/05/04 02:45:46;;;;;;;4.53;4.05;;;;;;;1.88;79.87;92606.59;2121292;28;20030;-87
2021/05/04 02:46:46;;;;;;;5.97;4.40;;;;;;;1.91;79.31;92597.94;2117091;28;20015;-84
2021/05/04 02:47:47;;;;;;;6.65;4.13;;;;;;;1.86;80.87;92587.78;2116711;28;20072;-83
2021/05/04 02:48:48;;;;;;;5.72;4.00;;;;;;;1.85;80.48;92594.19;2112702;28;20046;-84
2021/05/04 02:49:49;;;;;;;4.18;3.78;;;;;;;1.81;80.81;92596.03;2121154;27;20029;-85
2021/05/04 02:50:49;;;;;;;5.15;3.72;;;;;;;1.72;80.93;92598.28;2121330;28;20027;-84
2021/05/04 02:51:50;;;;;;;6.13;3.80;;;;;;;1.66;80.99;92597.13;2104425;28;20024;-83
2021/05/04 02:52:51;;;;;;;5.38;4.40;;;;;;;1.64;81.91;92588.84;2121121;27;20024;-85
2021/05/04 02:53:52;;;;;;;5.90;4.57;;;;;;;1.65;81.85;92590.34;2112420;28;20020;-84
2021/05/04 02:54:53;;;;;;;4.57;4.18;;;;;;;1.75;81.27;92584.34;2104222;28;20020;-86
2021/05/04 02:55:53;;;;;;;4.57;4.00;;;;;;;1.75;81.67;92590.38;2112698;28;20388;-84
2021/05/04 02:56:54;;;;;;;4.88;4.30;;;;;;;1.68;82.13;92595.63;2112835;28;20019;-84
2021/05/04 02:57:55;;;;;;;7.43;4.15;;;;;;;1.75;81.14;92595.63;2112719;28;20030;-82
2021/05/04 02:58:56;;;;;;;7.72;4.30;;;;;;;1.72;80.94;92593.00;2114637;28;20020;-83
2021/05/04 02:59:56;;;;;;;5.40;4.40;;;;;;;1.65;81.15;92596.38;2112613;28;20020;-84
2021/05/04 03:00:57;;;;;;;4.32;3.90;;;;;;;1.53;81.99;92599.31;2095725;28;20055;-84
2021/05/04 03:01:59;;;;;;;4.82;4.15;;;;;;;1.54;81.88;92598.22;2087771;28;20137;-84
2021/05/04 03:03:00;;;;;;;7.13;4.28;;;;;;;1.63;81.62;92603.16;2096449;28;20096;-83
2021/05/04 03:04:01;;;;;;;4.80;4.40;;;;;;;1.67;81.32;92599.41;2112465;28;20428;-88
2021/05/04 03:05:02;;;;;;;4.82;4.32;;;;;;;1.66;82.76;92599.75;2113114;28;20054;-84
2021/05/04 03:06:04;;;;;;;6.03;4.28;;;;;;;1.59;82.99;92594.47;2104284;28;20035;-84
2021/05/04 03:07:04;;;;;;;5.65;4.28;;;;;;;1.58;82.32;92580.56;2095540;28;20025;-83
2021/05/04 03:08:05;;;;;;;6.53;3.85;;;;;;;1.48;82.86;92586.53;2104387;28;20048;-84
2021/05/04 03:09:06;;;;;;;5.18;4.15;;;;;;;1.48;82.60;92597.81;2104248;28;20052;-83
2021/05/04 03:10:07;;;;;;;4.68;3.97;;;;;;;1.45;82.58;92582.00;2110619;28;20043;-88
2021/05/04 03:11:08;;;;;;;4.85;4.07;;;;;;;1.49;82.67;92583.53;2104208;28;20020;-80
2021/05/04 03:12:09;;;;;;;6.20;4.15;;;;;;;1.64;82.69;92580.94;2104150;28;20551;-81
2021/05/04 03:13:11;;;;;;;4.70;3.92;;;;;;;1.65;82.21;92571.91;2102451;28;20055;-84
2021/05/04 03:14:11;;;;;;;4.03;3.63;;;;;;;1.61;82.19;92565.88;2104419;28;20064;-82
2021/05/04 03:15:12;;;;;;;5.10;3.97;;;;;;;1.62;81.99;92572.63;2112543;28;20031;-83
2021/05/04 03:16:13;;;;;;;4.45;4.05;;;;;;;1.58;81.61;92572.66;2099438;28;20046;-86
2021/05/04 03:17:13;;;;;;;4.43;3.90;;;;;;;1.63;82.02;92571.53;2098447;28;20059;-83
2021/05/04 03:18:14;;;;;;;4.40;3.97;;;;;;;1.75;82.97;92566.66;2098487;28;20060;-83
2021/05/04 03:19:15;;;;;;;6.40;4.40;;;;;;;1.73;82.96;92566.28;2106599;28;20082;-85
2021/05/04 03:20:15;;;;;;;5.28;4.78;;;;;;;1.81;81.03;92568.94;2107042;28;20439;-85
2021/05/04 03:21:17;;;;;;;5.13;3.60;;;;;;;1.67;81.63;92562.50;2098232;28;20048;-84
2021/05/04 03:22:17;;;;;;;5.65;4.22;;;;;;;1.72;82.18;92561.41;2090325;28;20032;-83
2021/05/04 03:23:19;;;;;;;4.30;3.90;;;;;;;1.73;82.29;92557.63;2100798;28;20149;-83
2021/05/04 03:24:20;;;;;;;5.10;4.30;;;;;;;1.78;82.44;92554.63;2111127;28;20024;-86
2021/05/04 03:25:21;;;;;;;3.83;3.53;;;;;;;1.77;81.95;92556.50;2106817;28;20085;-87
2021/05/04 03:26:21;;;;;;;4.70;3.80;;;;;;;1.76;82.34;92547.09;2098650;28;20099;-85
2021/05/04 03:27:22;;;;;;;5.07;4.55;;;;;;;1.81;81.77;92555.78;2090206;28;20028;-87
2021/05/04 03:28:23;;;;;;;6.13;3.75;;;;;;;1.81;82.14;92553.13;2098657;28;20059;-87
2021/05/04 03:29:24;;;;;;;4.05;3.60;;;;;;;1.79;82.70;92556.13;2098535;28;20030;-86
2021/05/04 03:30:26;;;;;;;5.82;3.83;;;;;;;1.67;83.45;92554.63;2114898;28;20028;-83
2021/05/04 03:31:27;;;;;;;5.57;4.30;;;;;;;1.56;83.75;92553.06;2107000;28;20031;-83
2021/05/04 03:32:27;;;;;;;5.07;3.83;;;;;;;1.56;83.35;92545.91;2098700;28;20075;-85
2021/05/04 03:33:28;;;;;;;4.72;4.32;;;;;;;1.50;83.48;92550.81;2090214;28;20028;-83
2021/05/04 03:34:29;;;;;;;5.80;4.47;;;;;;;1.47;83.50;92556.06;2098374;28;20739;-83
2021/05/04 03:35:29;;;;;;;5.78;4.40;;;;;;;1.46;83.71;92552.66;2106624;28;20134;-84
2021/05/04 03:36:30;;;;;;;8.25;5.80;;;;;;;1.44;83.72;92554.16;2098401;28;20595;-83
2021/05/04 03:37:32;;;;;;;6.90;5.60;;;;;;;1.39;84.55;92546.63;2106863;28;20103;-82
2021/05/04 03:38:34;;;;;;;7.03;5.55;;;;;;;1.46;83.44;92557.94;2115421;28;20020;-83
2021/05/04 03:39:34;;;;;;;7.45;5.65;;;;;;;1.39;84.55;92563.16;2098698;28;20085;-85
2021/05/04 03:40:35;;;;;;;6.95;5.82;;;;;;;1.41;83.63;92560.94;2090235;28;20457;-83
2021/05/04 03:41:35;;;;;;;5.50;5.00;;;;;;;1.36;83.94;92556.03;2097615;28;20459;-79
2021/05/04 03:42:36;;;;;;;6.10;4.93;;;;;;;1.46;83.19;92551.91;2106961;28;20065;-83
2021/05/04 03:43:37;;;;;;;5.70;5.18;;;;;;;1.41;83.69;92560.19;2106348;28;20073;-85
2021/05/04 03:44:37;;;;;;;6.20;5.60;;;;;;;1.43;84.63;92542.13;2081868;28;20075;-84
2021/05/04 03:45:38;;;;;;;5.75;5.25;;;;;;;1.44;84.45;92548.88;2091200;28;20048;-87
2021/05/04 03:46:39;;;;;;;6.57;5.88;;;;;;;1.44;84.46;92535.72;2105406;28;20016;-81
2021/05/04 03:47:42;;;;;;;6.85;6.07;;;;;;;1.50;84.67;92537.63;2090118;28;20034;-80
2021/05/04 03:48:43;;;;;;;6.55;5.95;;;;;;;1.49;84.05;92538.78;2090630;28;20047;-86
2021/05/04 03:49:43;;;;;;;5.70;5.10;;;;;;;1.48;83.48;92545.13;2102378;28;20024;-87
2021/05/04 03:50:45;;;;;;;6.15;5.38;;;;;;;1.42;83.77;92538.75;2083771;28;20036;-87
2021/05/04 03:51:45;;;;;;;6.50;5.72;;;;;;;1.43;83.91;92539.50;2098483;28;20029;-85
2021/05/04 03:52:46;;;;;;;5.68;5.13;;;;;;;1.38;84.77;92532.69;2098226;28;20024;-86
2021/05/04 03:53:47;;;;;;;8.10;5.63;;;;;;;1.40;83.91;92535.69;2110761;28;20138;-86
2021/05/04 03:54:47;;;;;;;6.63;5.88;;;;;;;1.40;83.82;92530.44;2106618;28;20027;-82
2021/05/04 03:55:48;;;;;;;9.27;5.68;;;;;;;1.44;84.16;92533.84;2106674;28;20024;-83
2021/05/04 03:56:50;;;;;;;7.35;6.15;;;;;;;1.41;84.27;92534.59;2090060;28;20111;-84
2021/05/04 03:57:51;;;;;;;7.80;5.65;;;;;;;1.43;84.01;92528.97;2095563;28;20016;-85
2021/05/04 03:58:51;;;;;;;8.80;5.60;;;;;;;1.46;84.37;92528.97;2092763;28;20024;-83
2021/05/04 03:59:52;;;;;;;6.78;5.70;;;;;;;1.42;84.10;92528.19;2095234;28;20021;-88
2021/05/04 04:00:53;;;;;;;5.80;5.30;;;;;;;1.36;84.59;92528.91;2098206;28;20020;-79
2021/05/04 04:01:53;;;;;;;6.82;5.65;;;;;;;1.59;84.07;92528.63;2091013;28;20040;-83
2021/05/04 04:02:54;;;;;;;7.07;5.45;;;;;;;1.78;82.66;92528.28;2098123;28;20020;-84
2021/05/04 04:03:55;;;;;;;8.57;5.85;;;;;;;1.66;83.36;92518.84;2104650;28;20031;-87
2021/05/04 04:04:55;;;;;;;9.07;6.03;;;;;;;1.72;83.25;92535.06;2089843;28;20958;-86
2021/05/04 04:05:56;;;;;;;8.88;5.75;;;;;;;1.71;83.46;92513.22;2081649;28;20722;-84
2021/05/04 04:06:57;;;;;;;7.90;6.20;;;;;;;1.76;83.70;92517.38;2089931;28;20027;-85
2021/05/04 04:07:58;;;;;;;6.80;4.82;;;;;;;2.53;78.98;92517.75;2089765;28;20115;-81
2021/05/04 04:08:58;;;;;;;6.18;5.57;;;;;;;2.58;79.02;92509.44;2098218;28;20020;-83
2021/05/04 04:09:59;;;;;;;8.70;6.10;;;;;;;2.44;79.60;92512.84;2098468;28;20044;-86
2021/05/04 04:10:59;;;;;;;7.97;6.75;;;;;;;2.39;80.33;92507.22;2098291;28;20385;-84
2021/05/04 04:12:00;;;;;;;9.13;7.32;;;;;;;2.31;80.59;92519.63;2098144;28;20052;-85
2021/05/04 04:13:01;;;;;;;9.52;6.50;;;;;;;2.24;80.47;92523.06;2090019;28;20029;-85
2021/05/04 04:14:01;;;;;;;6.25;5.63;;;;;;;2.29;80.92;92507.97;2089938;28;20053;-79
2021/05/04 04:15:03;;;;;;;8.75;6.03;;;;;;;2.60;79.28;92503.78;2098363;28;20028;-88
2021/05/04 04:16:04;;;;;;;7.25;5.85;;;;;;;3.03;77.16;92499.91;2098727;28;20116;-82
2021/05/04 04:17:04;;;;;;;7.85;4.95;;;;;;;3.81;73.13;92498.00;2106544;28;20377;-83
2021/05/04 04:18:05;;;;;;;7.38;6.63;;;;;;;3.97;73.30;92505.47;2081652;28;20032;-84
2021/05/04 04:19:08;;;;;;;7.40;6.25;;;;;;;4.23;72.33;92502.25;2089952;28;20382;-85
2021/05/04 04:20:09;;;;;;;5.65;5.10;;;;;;;4.45;70.03;92497.53;2089746;28;20021;-84
2021/05/04 04:21:09;;;;;;;8.75;5.07;;;;;;;4.42;71.57;92486.97;2081782;28;20107;-87
2021/05/04 04:22:10;;;;;;;7.28;5.32;;;;;;;4.57;70.42;92504.22;2100496;28;20028;-83
2021/05/04 04:23:10;;;;;;;9.32;8.05;;;;;;;4.59;70.08;92496.63;2098013;28;20020;-83
2021/05/04 04:24:11;;;;;;;6.95;6.25;;;;;;;4.64;70.43;92501.50;2089817;28;20486;-84
2021/05/04 04:25:12;;;;;;;5.90;5.15;;;;;;;5.00;67.72;92495.84;2089852;28;20450;-84
2021/05/04 04:26:13;;;;;;;6.53;4.78;;;;;;;5.32;66.70;92484.16;2089806;28;20027;-85
2021/05/04 04:27:13;;;;;;;6.80;5.30;;;;;;;5.32;67.06;92490.19;2089384;28;20021;-84
2021/05/04 04:28:14;;;;;;;10.05;6.05;;;;;;;5.49;65.26;92491.88;2089134;28;20032;-83
2021/05/04 04:29:15;;;;;;;19.40;10.70;;;;;;;5.59;65.14;92482.28;2106155;28;20024;-85
2021/05/04 04:30:16;;;;;;;16.05;10.20;;;;;;;5.52;66.66;92479.72;2106024;28;20558;-83
2021/05/04 04:31:16;;;;;;;17.85;10.10;;;;;;;5.65;65.78;92480.66;2089744;28;20025;-86
2021/05/04 04:32:17;;;;;;;12.52;7.60;;;;;;;5.83;63.16;92488.38;2089314;28;20474;-86
2021/05/04 04:33:27;;;;;;;6.35;5.53;;;;;;;6.17;62.07;92469.72;2089767;28;20048;-85
2021/05/04 04:34:28;;;;;;;6.72;4.45;;;;;;;6.28;61.45;92480.91;2100209;28;20643;-83
2021/05/04 04:35:29;;;;;;;7.70;5.10;;;;;;;6.19;62.85;92480.69;2098011;28;20052;-84
2021/05/04 04:36:29;;;;;;;28.10;15.05;;;;;;;6.43;61.53;92486.00;2089601;28;20025;-85
2021/05/04 04:37:30;;;;;;;11.25;7.07;;;;;;;6.35;61.28;92474.72;2089747;28;20082;-84
2021/05/04 04:38:31;;;;;;;19.77;11.63;;;;;;;6.30;62.47;92475.19;2098077;28;20020;-86
2021/05/04 04:39:32;;;;;;;31.10;18.00;;;;;;;6.21;62.48;92475.72;2098007;28;20016;-83
2021/05/04 04:40:32;;;;;;;20.88;11.98;;;;;;;6.30;62.47;92475.19;2098051;28;20028;-87
2021/05/04 04:41:35;;;;;;;10.57;7.65;;;;;;;6.47;59.88;92471.50;2098090;28;20016;-85
2021/05/04 04:42:36;;;;;;;7.63;5.78;;;;;;;6.39;61.90;92456.09;2089930;28;20029;-84
2021/05/04 04:43:37;;;;;;;7.10;5.07;;;;;;;6.57;60.86;92473.22;2089565;28;20525;-86
2021/05/04 04:44:37;;;;;;;6.53;5.78;;;;;;;6.56;60.62;92469.06;2089859;28;20025;-86
2021/05/04 04:45:38;;;;;;;9.30;5.20;;;;;;;6.69;59.67;92479.84;2089908;28;20052;-85
2021/05/04 04:46:40;;;;;;;9.77;6.88;;;;;;;6.68;60.62;92451.06;2092549;28;20087;-83
2021/05/04 04:47:41;;;;;;;6.47;5.43;;;;;;;6.63;60.68;92464.78;2092742;28;20024;-83
2021/05/04 04:48:41;;;;;;;7.28;5.05;;;;;;;6.83;58.88;92465.56;2102886;28;20099;-85
2021/05/04 04:49:42;;;;;;;6.13;4.50;;;;;;;7.06;57.80;92462.09;2097583;28;20036;-86
2021/05/04 04:50:43;;;;;;;6.55;4.40;;;;;;;7.26;57.32;92486.03;2097658;28;20358;-84